createdAt,value
2022-08-10T16:02:14.482Z,9.00
2022-08-10T16:03:54.726Z,9.20
2022-08-10T16:06:01.397Z,8.20
2022-08-10T16:07:49.131Z,11.40
2022-08-10T16:10:21.940Z,9.80
2022-08-10T16:11:17.384Z,10.00
2022-08-10T16:13:59.908Z,6.40
2022-08-10T16:15:12.244Z,6.20
2022-08-10T16:16:48.817Z,8.40
2022-08-10T16:18:24.749Z,6.80
2022-08-10T16:19:57.613Z,8.60
2022-08-10T16:21:30.552Z,6.40
2022-08-10T16:23:10.957Z,6.40
2022-08-10T16:24:47.403Z,4.80
2022-08-10T16:26:25.041Z,7.00
2022-08-10T16:28:04.547Z,7.60
2022-08-10T16:29:55.682Z,6.20
2022-08-10T16:31:31.329Z,6.20
2022-08-10T16:33:03.160Z,7.00
2022-08-10T16:34:37.961Z,6.00
2022-08-10T16:36:09.767Z,5.20
2022-08-10T16:37:58.765Z,6.00
2022-08-10T16:40:00.422Z,4.80
2022-08-10T16:42:04.939Z,5.80
2022-08-10T16:43:23.728Z,6.00
2022-08-10T16:45:01.767Z,3.80
2022-08-10T16:46:33.533Z,6.00
2022-08-10T16:48:05.731Z,4.80
2022-08-10T16:49:40.300Z,5.80
2022-08-10T16:51:14.259Z,6.80
2022-08-10T16:52:50.103Z,6.20
2022-08-10T16:54:27.009Z,5.20
2022-08-10T16:56:04.371Z,5.80
2022-08-10T16:57:39.767Z,5.40
2022-08-10T16:59:17.770Z,6.40
2022-08-10T17:00:53.698Z,6.00
2022-08-10T17:02:25.525Z,6.40
2022-08-10T17:04:06.624Z,6.40
2022-08-10T17:06:09.803Z,5.00
2022-08-10T17:07:34.068Z,5.00
2022-08-10T17:09:07.258Z,5.20
2022-08-10T17:10:39.532Z,6.00
2022-08-10T17:12:14.072Z,6.20
2022-08-10T17:13:46.179Z,6.00
2022-08-10T17:15:17.996Z,8.00
2022-08-10T17:16:55.554Z,11.40
2022-08-10T17:18:30.323Z,13.80
2022-08-10T17:20:30.841Z,14.80
2022-08-10T17:21:56.791Z,20.20
2022-08-10T17:23:31.231Z,31.40
2022-08-10T17:25:11.916Z,30.00
2022-08-10T17:26:44.027Z,39.60
2022-08-10T17:28:36.120Z,34.60
2022-08-10T17:30:13.986Z,42.20
2022-08-10T17:31:53.532Z,39.00
2022-08-10T17:33:28.912Z,42.80
2022-08-10T17:35:01.835Z,41.40
2022-08-10T17:36:34.473Z,39.00
2022-08-10T17:38:09.599Z,38.20
2022-08-10T17:39:43.444Z,39.00
2022-08-10T17:41:15.703Z,45.60
2022-08-10T17:42:47.603Z,41.60
2022-08-10T17:44:19.823Z,41.40
2022-08-10T17:45:51.981Z,40.20
2022-08-10T17:47:27.273Z,41.80
2022-08-10T17:48:59.896Z,46.80
2022-08-10T17:50:33.085Z,45.40
2022-08-10T17:52:07.528Z,45.60
2022-08-10T17:53:50.714Z,43.40
2022-08-10T17:55:22.517Z,49.40
2022-08-10T17:56:59.508Z,45.60
2022-08-10T17:58:31.719Z,48.40
2022-08-10T18:00:05.670Z,50.80
2022-08-10T18:02:01.946Z,46.20
2022-08-10T18:03:34.474Z,44.80
2022-08-10T18:05:08.403Z,46.60
2022-08-10T18:06:41.261Z,56.20
2022-08-10T18:08:13.889Z,49.60
2022-08-10T18:09:52.980Z,57.50
2022-08-10T18:11:26.262Z,59.00
2022-08-10T18:12:58.059Z,45.40
2022-08-10T18:14:31.201Z,50.60
2022-08-10T18:16:03.049Z,53.00
2022-08-10T18:17:38.303Z,50.80
2022-08-10T18:19:12.550Z,46.60
2022-08-10T18:20:44.402Z,48.60
2022-08-10T18:22:16.199Z,46.00
2022-08-10T18:23:52.541Z,50.80
2022-08-10T18:25:27.171Z,53.00
2022-08-10T18:27:01.920Z,48.20
2022-08-10T18:28:33.870Z,51.80
2022-08-10T18:30:07.892Z,52.00
2022-08-10T18:31:41.812Z,50.60
2022-08-10T18:33:14.493Z,48.80
2022-08-10T18:34:46.544Z,51.40
2022-08-10T18:36:18.458Z,46.60
2022-08-10T18:37:51.332Z,52.80
2022-08-10T18:39:32.315Z,51.80
2022-08-10T18:41:07.602Z,50.60
2022-08-10T18:42:40.704Z,50.00
2022-08-10T18:44:15.726Z,49.20
2022-08-10T18:45:47.523Z,49.60
2022-08-10T18:47:34.133Z,54.00
2022-08-10T18:49:09.182Z,57.50
2022-08-10T18:50:54.772Z,52.40
2022-08-10T18:52:30.269Z,63.00
2022-08-10T18:54:09.315Z,57.60
2022-08-10T18:56:33.023Z,49.60
2022-08-10T18:58:11.435Z,52.40
2022-08-10T19:00:07.737Z,61.00
2022-08-10T19:02:05.304Z,50.60
2022-08-10T19:04:02.258Z,60.80
2022-08-10T19:06:01.497Z,77.50
2022-08-10T19:07:55.000Z,72.25
2022-08-10T19:09:57.146Z,65.00
2022-08-10T19:12:05.690Z,65.50
2022-08-10T19:14:00.367Z,71.00
2022-08-10T19:15:49.136Z,73.75
2022-08-10T19:18:03.444Z,69.75
2022-08-10T19:20:12.290Z,81.50
2022-08-10T19:22:14.675Z,81.75
2022-08-10T19:24:15.225Z,82.25
2022-08-10T19:26:33.008Z,81.50
2022-08-10T19:28:13.489Z,84.25
2022-08-10T19:30:20.808Z,89.00
2022-08-10T19:32:33.792Z,77.25
2022-08-10T19:34:24.505Z,77.50
2022-08-10T19:36:17.726Z,87.25
2022-08-10T19:37:59.915Z,78.75
2022-08-10T19:39:50.867Z,90.00
2022-08-10T19:41:26.484Z,89.50
2022-08-10T19:43:59.171Z,86.00
2022-08-10T19:46:01.275Z,86.50
2022-08-10T19:47:41.286Z,95.00
2022-08-10T19:49:53.122Z,99.25
2022-08-10T19:51:48.551Z,101.50
2022-08-10T19:53:55.633Z,90.00
2022-08-10T19:55:54.306Z,95.00
2022-08-10T19:57:36.682Z,92.00
2022-08-10T20:00:17.226Z,91.00
2022-08-10T20:01:15.978Z,93.00
2022-08-10T20:03:10.595Z,93.25
2022-08-10T20:04:47.188Z,80.25
2022-08-10T20:06:43.508Z,92.50
2022-08-10T20:08:20.205Z,74.25
2022-08-10T20:10:24.646Z,84.75
2022-08-10T20:12:08.485Z,78.00
2022-08-10T20:13:45.277Z,86.50
2022-08-10T20:15:42.550Z,81.75
2022-08-10T20:17:26.118Z,80.75
2022-08-10T20:19:05.983Z,74.50
2022-08-10T20:20:42.540Z,77.50
2022-08-10T20:22:14.589Z,84.00
2022-08-10T20:23:55.461Z,80.00
2022-08-10T20:25:31.548Z,69.00
2022-08-10T20:27:59.169Z,79.25
2022-08-10T20:29:58.242Z,78.50
2022-08-10T20:31:40.368Z,94.75
2022-08-10T20:33:30.500Z,74.25
2022-08-10T20:35:07.852Z,72.00
2022-08-10T20:36:42.644Z,77.75
2022-08-10T20:38:28.839Z,78.50
2022-08-10T20:40:18.432Z,83.25
2022-08-10T20:42:21.996Z,77.50
2022-08-10T20:44:20.016Z,79.25
2022-08-10T20:46:11.410Z,80.25
2022-08-10T20:48:10.329Z,89.75
2022-08-10T20:49:52.245Z,85.00
2022-08-10T20:51:58.361Z,85.25
2022-08-10T20:53:27.713Z,77.75
2022-08-10T20:55:02.276Z,75.25
2022-08-10T20:57:56.511Z,73.25
2022-08-10T20:59:33.392Z,85.50
2022-08-10T21:02:05.928Z,82.25
2022-08-10T21:04:01.212Z,96.25
2022-08-10T21:06:09.940Z,97.75
2022-08-10T21:08:02.399Z,105.50
2022-08-10T21:10:02.835Z,95.00
2022-08-10T21:11:43.188Z,108.80
2022-08-10T21:13:24.780Z,104.50
2022-08-10T21:15:00.512Z,105.00
2022-08-10T21:16:49.507Z,89.00
2022-08-10T21:18:44.022Z,114.20
2022-08-10T21:22:49.516Z,118.75
2022-08-10T21:24:25.734Z,123.00
2022-08-10T21:25:42.032Z,106.40
2022-08-10T21:26:20.341Z,134.25
2022-08-10T21:28:25.201Z,142.75
2022-08-10T21:30:27.289Z,123.50
2022-08-10T21:32:17.764Z,118.25
2022-08-10T21:34:37.131Z,125.25
2022-08-10T21:36:39.711Z,136.75
2022-08-10T21:38:48.144Z,144.25
2022-08-10T21:41:18.543Z,144.75
2022-08-10T21:43:44.168Z,160.00
2022-08-10T21:46:12.807Z,163.25
2022-08-10T21:48:33.798Z,156.75
2022-08-10T21:50:27.604Z,157.00
2022-08-10T21:52:39.147Z,158.25
2022-08-10T21:54:37.528Z,183.00
2022-08-10T21:57:08.338Z,157.50
2022-08-10T21:59:11.900Z,169.25
2022-08-10T22:01:05.870Z,177.00
2022-08-10T22:02:59.710Z,157.50
2022-08-10T22:04:50.198Z,150.25
2022-08-10T22:06:40.640Z,185.50
2022-08-10T22:08:44.929Z,171.00
2022-08-10T22:10:37.022Z,189.00
2022-08-10T22:12:32.104Z,158.50
2022-08-10T22:14:22.863Z,153.75
2022-08-10T22:16:17.351Z,154.25
2022-08-10T22:18:07.661Z,165.75
2022-08-10T22:20:12.305Z,213.67
2022-08-10T22:22:19.653Z,205.00
2022-08-10T22:24:29.279Z,210.00
2022-08-10T22:26:39.901Z,205.33
2022-08-10T22:28:33.510Z,188.75
2022-08-10T22:30:23.934Z,169.50
2022-08-10T22:32:22.426Z,158.25
2022-08-10T22:34:21.309Z,143.50
